Time;durP1;ratioP1;P1;durP2;ratioP2;P2;SDS_P1;SDS_P2;PMS_P1;PMS_P2;Temp;Humidity;BMP_temperature;BMP_pressure;BME280_temperature;BME280_humidity;BME280_pressure;Samples;Min_cycle;Max_cycle;Signal;HPM_P1;HPM_P2
2020/12/31 00:00:49;;;;;;;29.53;27.13;;;4.20;99.90;;;;;;5120382;27;20826;-79
2020/12/31 00:03:15;;;;;;;29.57;27.27;;;4.20;99.90;;;;;;5124996;28;20814;-76
2020/12/31 00:05:42;;;;;;;32.47;29.30;;;4.20;99.90;;;;;;5118538;28;20554;-77
2020/12/31 00:08:10;;;;;;;31.43;28.90;;;4.20;99.90;;;;;;5120822;28;20456;-77
2020/12/31 00:10:36;;;;;;;31.33;28.70;;;4.10;99.90;;;;;;5122033;28;20452;-75
2020/12/31 00:13:03;;;;;;;31.43;29.03;;;4.20;99.90;;;;;;5123741;28;20784;-74
2020/12/31 00:15:31;;;;;;;32.43;29.63;;;4.20;99.90;;;;;;5130910;27;20509;-77
2020/12/31 00:17:58;;;;;;;31.53;28.93;;;4.20;99.90;;;;;;5127497;27;20464;-74
2020/12/31 00:20:25;;;;;;;30.83;28.23;;;4.20;99.90;;;;;;5122773;27;20471;-74
2020/12/31 00:22:51;;;;;;;32.50;29.67;;;4.20;99.90;;;;;;5120261;27;20477;-77
2020/12/31 00:25:18;;;;;;;34.20;31.20;;;4.20;99.90;;;;;;5128832;27;20468;-75
2020/12/31 00:27:44;;;;;;;32.13;29.40;;;4.10;99.90;;;;;;5125627;27;20511;-75
2020/12/31 00:30:16;;;;;;;32.10;29.30;;;4.10;99.90;;;;;;5127880;27;20512;-79
2020/12/31 00:32:43;;;;;;;34.30;31.50;;;4.10;99.90;;;;;;5124418;27;20601;-76
2020/12/31 00:35:09;;;;;;;34.03;31.03;;;4.10;99.90;;;;;;5126527;27;20452;-77
2020/12/31 00:37:38;;;;;;;31.90;28.97;;;4.00;99.90;;;;;;5124779;27;20464;-75
2020/12/31 00:40:05;;;;;;;32.23;29.50;;;4.00;99.90;;;;;;5124128;27;20492;-78
2020/12/31 00:42:32;;;;;;;31.63;28.83;;;4.00;99.90;;;;;;5126663;27;20469;-78
2020/12/31 00:44:59;;;;;;;34.57;31.47;;;3.90;99.90;;;;;;5127009;27;20479;-73
2020/12/31 00:47:26;;;;;;;30.90;28.20;;;3.90;99.90;;;;;;5121773;27;20464;-78
2020/12/31 00:49:54;;;;;;;33.13;30.27;;;3.90;99.90;;;;;;5127458;27;20824;-78
2020/12/31 00:52:21;;;;;;;32.60;29.70;;;3.90;99.90;;;;;;5125789;27;21031;-74
2020/12/31 00:54:47;;;;;;;30.93;27.97;;;3.90;99.90;;;;;;5127368;27;20448;-77
2020/12/31 00:57:13;;;;;;;31.47;28.80;;;3.90;99.90;;;;;;5128145;27;20832;-79
2020/12/31 00:59:42;;;;;;;30.70;28.03;;;3.90;99.90;;;;;;5126150;27;20460;-76
2020/12/31 01:02:09;;;;;;;32.10;29.13;;;4.00;99.90;;;;;;5126666;27;20527;-76
2020/12/31 01:04:37;;;;;;;30.23;27.47;;;4.10;99.90;;;;;;5125869;27;20495;-76
2020/12/31 01:07:04;;;;;;;30.30;27.50;;;4.10;99.90;;;;;;5118189;27;20453;-74
2020/12/31 01:09:30;;;;;;;30.33;27.73;;;4.20;99.90;;;;;;5130178;27;20879;-80
2020/12/31 01:11:57;;;;;;;29.73;26.97;;;4.20;99.90;;;;;;5125498;27;20517;-77
2020/12/31 01:14:23;;;;;;;28.17;25.93;;;4.20;99.90;;;;;;5122634;27;20456;-76
2020/12/31 01:16:52;;;;;;;28.83;26.30;;;4.10;99.90;;;;;;5124313;27;20461;-78
2020/12/31 01:19:19;;;;;;;30.90;27.93;;;4.10;99.90;;;;;;5126725;27;20550;-75
2020/12/31 01:21:46;;;;;;;27.93;25.33;;;4.10;99.90;;;;;;5123272;27;20832;-77
2020/12/31 01:24:13;;;;;;;27.70;25.20;;;4.20;99.90;;;;;;5123687;27;20498;-79
2020/12/31 01:26:41;;;;;;;27.73;25.40;;;4.20;99.90;;;;;;5120984;27;20461;-77
2020/12/31 01:29:10;;;;;;;30.53;26.80;;;4.20;99.90;;;;;;5120914;27;20459;-75
2020/12/31 01:31:37;;;;;;;29.03;26.00;;;4.20;99.90;;;;;;5119936;27;20486;-76
2020/12/31 01:34:05;;;;;;;26.83;24.60;;;4.20;99.90;;;;;;5124774;27;20966;-76
2020/12/31 01:36:32;;;;;;;27.00;24.80;;;4.30;99.90;;;;;;5125313;27;20479;-76
2020/12/31 01:38:59;;;;;;;27.80;25.43;;;4.30;99.90;;;;;;5125601;27;20494;-74
2020/12/31 01:41:26;;;;;;;28.77;25.80;;;4.30;99.90;;;;;;5127260;27;20471;-78
2020/12/31 01:44:06;;;;;;;26.50;24.30;;;4.40;99.90;;;;;;5122942;27;20471;-78
2020/12/31 01:46:34;;;;;;;27.30;24.77;;;4.30;99.90;;;;;;5122374;27;20456;-76
2020/12/31 01:49:03;;;;;;;25.33;23.27;;;4.40;99.90;;;;;;5119070;27;20479;-81
2020/12/31 01:51:29;;;;;;;27.03;24.87;;;4.40;99.90;;;;;;5127032;27;20479;-80
2020/12/31 01:53:57;;;;;;;27.27;24.73;;;4.30;99.90;;;;;;5125309;27;20456;-80
2020/12/31 01:56:30;;;;;;;27.20;24.77;;;4.30;99.90;;;;;;5122680;27;20458;-76
2020/12/31 01:58:58;;;;;;;28.67;26.00;;;4.30;99.90;;;;;;5126117;27;20444;-78
2020/12/31 02:01:26;;;;;;;25.43;23.00;;;4.40;99.90;;;;;;5125477;27;20460;-76
2020/12/31 02:03:53;;;;;;;25.73;23.63;;;4.40;99.90;;;;;;5121301;27;20476;-78
2020/12/31 02:06:22;;;;;;;25.70;23.50;;;4.40;99.90;;;;;;5121865;27;21027;-77
2020/12/31 02:08:48;;;;;;;26.43;24.00;;;4.40;99.90;;;;;;5119598;27;20456;-77
2020/12/31 02:11:16;;;;;;;25.50;23.60;;;4.40;99.90;;;;;;5126068;27;20460;-75
2020/12/31 02:13:45;;;;;;;24.40;22.33;;;4.40;99.90;;;;;;5125704;27;20469;-77
2020/12/31 02:16:12;;;;;;;26.17;24.13;;;4.40;99.90;;;;;;5130338;27;20464;-77
2020/12/31 02:18:57;;;;;;;25.63;23.53;;;4.30;99.90;;;;;;5124625;27;20457;-75
2020/12/31 02:21:25;;;;;;;25.93;23.93;;;4.30;99.90;;;;;;5126336;27;20970;-79
2020/12/31 02:23:53;;;;;;;24.20;22.10;;;4.40;99.90;;;;;;5118311;27;20491;-76
2020/12/31 02:26:21;;;;;;;23.70;21.83;;;4.40;99.90;;;;;;5123822;27;20460;-77
2020/12/31 02:28:47;;;;;;;24.60;22.80;;;4.30;99.90;;;;;;5121983;27;20460;-79
2020/12/31 02:31:15;;;;;;;25.07;23.07;;;4.20;99.90;;;;;;5117953;27;20465;-76
2020/12/31 02:33:45;;;;;;;22.30;20.80;;;4.30;99.90;;;;;;5123264;27;20460;-77
2020/12/31 02:36:13;;;;;;;23.13;21.53;;;4.30;99.90;;;;;;5126591;27;20494;-78
2020/12/31 02:38:40;;;;;;;21.93;20.47;;;4.30;99.90;;;;;;5122344;27;20525;-79
2020/12/31 02:41:08;;;;;;;23.87;22.00;;;4.20;99.90;;;;;;5116869;27;20477;-78
2020/12/31 02:43:36;;;;;;;21.50;20.00;;;4.30;99.90;;;;;;5122988;27;20490;-76
2020/12/31 02:46:03;;;;;;;22.73;21.13;;;4.30;99.90;;;;;;5123807;27;20458;-77
2020/12/31 02:48:30;;;;;;;22.47;20.77;;;4.20;99.90;;;;;;5126730;27;20502;-78
2020/12/31 02:50:57;;;;;;;22.60;21.00;;;4.30;99.90;;;;;;5122765;27;20464;-76
2020/12/31 02:53:24;;;;;;;23.53;21.80;;;4.30;99.90;;;;;;5120601;27;20467;-75
2020/12/31 02:55:51;;;;;;;22.40;20.80;;;4.20;99.90;;;;;;5124977;27;20456;-77
2020/12/31 02:58:20;;;;;;;22.97;21.33;;;4.10;99.90;;;;;;5116569;27;20465;-75
2020/12/31 03:00:47;;;;;;;22.40;21.00;;;4.20;99.90;;;;;;5124047;27;20457;-77
2020/12/31 03:03:14;;;;;;;21.73;20.23;;;4.20;99.90;;;;;;5125869;27;20827;-76
2020/12/31 03:05:42;;;;;;;21.70;20.20;;;4.20;99.90;;;;;;5122166;27;20526;-75
2020/12/31 03:08:08;;;;;;;21.87;20.50;;;4.10;99.90;;;;;;5120360;27;20460;-75
2020/12/31 03:10:36;;;;;;;22.10;20.70;;;4.10;99.90;;;;;;5124186;27;20469;-77
2020/12/31 03:13:02;;;;;;;22.13;20.60;;;4.10;99.90;;;;;;5126465;27;20828;-78
2020/12/31 03:15:31;;;;;;;22.73;21.10;;;4.00;99.90;;;;;;5128654;27;20466;-75
2020/12/31 03:17:57;;;;;;;23.10;21.70;;;4.10;99.90;;;;;;5124022;27;20464;-77
2020/12/31 03:20:24;;;;;;;23.20;21.80;;;4.10;99.90;;;;;;5114024;27;20518;-77
2020/12/31 03:22:53;;;;;;;23.47;21.77;;;4.10;99.90;;;;;;5122634;27;20449;-76
2020/12/31 03:25:21;;;;;;;23.20;21.80;;;4.10;99.90;;;;;;5124295;27;20456;-74
2020/12/31 03:27:48;;;;;;;23.20;21.80;;;4.10;99.90;;;;;;5120162;27;20456;-76
2020/12/31 03:30:16;;;;;;;22.07;20.77;;;4.00;99.90;;;;;;5124399;27;20472;-75
2020/12/31 03:32:43;;;;;;;21.93;20.63;;;4.10;99.90;;;;;;5125146;27;20463;-75
2020/12/31 03:35:10;;;;;;;20.70;19.50;;;4.00;99.90;;;;;;5128059;27;20455;-76
2020/12/31 03:37:36;;;;;;;20.93;19.73;;;4.10;99.90;;;;;;5122690;27;20471;-73
2020/12/31 03:40:03;;;;;;;21.53;20.27;;;4.10;99.90;;;;;;5123002;27;20480;-74
2020/12/31 03:42:30;;;;;;;21.47;20.20;;;4.00;99.90;;;;;;5120415;27;20448;-73
2020/12/31 03:44:56;;;;;;;21.07;19.97;;;3.90;99.90;;;;;;5121744;27;20484;-73
2020/12/31 03:47:23;;;;;;;21.47;20.10;;;3.90;99.90;;;;;;5127383;27;20466;-73
2020/12/31 03:49:50;;;;;;;20.23;19.10;;;4.00;99.90;;;;;;5125318;27;20456;-73
2020/12/31 03:52:17;;;;;;;21.10;19.80;;;4.00;99.90;;;;;;5121531;27;20829;-73
2020/12/31 03:54:44;;;;;;;20.97;19.67;;;4.00;99.90;;;;;;5121251;27;20452;-73
2020/12/31 03:57:11;;;;;;;21.70;20.40;;;3.90;99.90;;;;;;5121373;27;20456;-73
2020/12/31 03:59:40;;;;;;;21.87;20.57;;;4.00;99.90;;;;;;5122009;27;20471;-75
2020/12/31 04:02:06;;;;;;;20.70;19.50;;;3.90;99.90;;;;;;5124661;27;20479;-76
2020/12/31 04:04:33;;;;;;;22.13;20.30;;;3.90;99.90;;;;;;5122916;28;21069;-76
2020/12/31 04:07:01;;;;;;;21.57;20.30;;;3.90;99.90;;;;;;5119468;28;20460;-76
2020/12/31 04:09:27;;;;;;;20.30;19.10;;;3.90;99.90;;;;;;5119119;28;20509;-76
2020/12/31 04:11:54;;;;;;;20.80;19.50;;;3.80;99.90;;;;;;5120259;28;20468;-76
2020/12/31 04:14:20;;;;;;;21.37;20.07;;;3.90;99.90;;;;;;5118785;27;20457;-76
2020/12/31 04:16:47;;;;;;;21.50;20.20;;;4.00;99.90;;;;;;5130895;27;20460;-76
2020/12/31 04:19:14;;;;;;;21.63;20.40;;;4.00;99.90;;;;;;5125167;28;20456;-76
2020/12/31 04:21:40;;;;;;;21.37;20.10;;;3.90;99.90;;;;;;5119606;28;20459;-76
2020/12/31 04:24:07;;;;;;;21.80;20.50;;;4.00;99.90;;;;;;5123235;28;20476;-76
2020/12/31 04:26:33;;;;;;;21.27;19.97;;;3.90;99.90;;;;;;5121746;28;20490;-76
2020/12/31 04:29:00;;;;;;;21.13;19.83;;;3.90;99.90;;;;;;5119776;28;20894;-76
2020/12/31 04:31:29;;;;;;;22.27;20.40;;;3.90;99.90;;;;;;5122818;27;20508;-76
2020/12/31 04:33:55;;;;;;;20.87;19.67;;;3.90;99.90;;;;;;5117228;28;20468;-74
2020/12/31 04:36:22;;;;;;;22.53;21.10;;;4.00;99.90;;;;;;5119332;28;20460;-75
2020/12/31 04:38:49;;;;;;;22.57;20.90;;;4.00;99.90;;;;;;5120473;28;21017;-74
2020/12/31 04:41:16;;;;;;;21.90;20.53;;;4.00;99.90;;;;;;5114176;28;20468;-74
2020/12/31 04:43:43;;;;;;;22.53;21.23;;;4.00;99.90;;;;;;5123236;28;20493;-76
2020/12/31 04:46:14;;;;;;;22.40;21.10;;;4.00;99.90;;;;;;5121563;27;20464;-76
2020/12/31 04:48:42;;;;;;;22.20;20.90;;;3.90;99.90;;;;;;5125576;28;20459;-76
2020/12/31 04:51:12;;;;;;;21.93;20.53;;;3.90;99.90;;;;;;5120326;28;20460;-76
2020/12/31 04:53:39;;;;;;;21.37;19.87;;;3.90;99.90;;;;;;5114511;28;21024;-76
2020/12/31 04:56:07;;;;;;;20.93;19.83;;;3.90;99.90;;;;;;5117735;28;20460;-76
2020/12/31 04:58:34;;;;;;;19.90;18.83;;;3.80;99.90;;;;;;5118594;28;22323;-75
2020/12/31 05:01:00;;;;;;;20.17;19.07;;;3.90;99.90;;;;;;5127982;27;20490;-76
2020/12/31 05:03:26;;;;;;;20.93;19.73;;;3.80;99.90;;;;;;5127749;27;20483;-76
2020/12/31 05:05:56;;;;;;;20.40;19.30;;;3.80;99.90;;;;;;5123004;27;20471;-76
2020/12/31 05:08:26;;;;;;;20.13;19.03;;;3.90;99.90;;;;;;5121939;27;20461;-76
2020/12/31 05:10:53;;;;;;;20.90;19.70;;;3.80;99.90;;;;;;5127299;27;20468;-76
2020/12/31 05:13:20;;;;;;;20.47;19.37;;;3.80;99.90;;;;;;5126294;27;20461;-76
2020/12/31 05:15:48;;;;;;;21.53;20.13;;;3.80;99.90;;;;;;5127338;27;20823;-76
2020/12/31 05:18:22;;;;;;;23.13;21.40;;;3.80;99.90;;;;;;5123816;27;20460;-76
2020/12/31 05:20:50;;;;;;;24.33;22.50;;;3.80;99.90;;;;;;5126465;27;20464;-76
2020/12/31 05:23:17;;;;;;;22.67;21.07;;;3.70;99.90;;;;;;5127736;27;20460;-76
2020/12/31 05:25:45;;;;;;;22.97;21.50;;;3.70;99.90;;;;;;5124894;27;20452;-76
2020/12/31 05:28:26;;;;;;;23.83;22.20;;;3.70;99.90;;;;;;5123976;27;20950;-76
2020/12/31 05:30:55;;;;;;;25.87;23.93;;;3.70;99.90;;;;;;5124543;27;20460;-76
2020/12/31 05:33:26;;;;;;;27.00;24.90;;;3.70;99.90;;;;;;5121620;27;20467;-76
2020/12/31 05:35:54;;;;;;;23.77;22.17;;;3.70;99.90;;;;;;5122234;27;20461;-76
2020/12/31 05:38:20;;;;;;;25.70;23.67;;;3.60;99.90;;;;;;5121370;27;20500;-76
2020/12/31 05:41:03;;;;;;;26.87;24.70;;;3.60;99.90;;;;;;5125841;27;20477;-76
2020/12/31 05:43:29;;;;;;;26.80;24.73;;;3.60;99.90;;;;;;5120140;27;20554;-75
2020/12/31 05:46:11;;;;;;;25.13;23.23;;;3.60;99.90;;;;;;5127783;27;20456;-76
2020/12/31 05:48:38;;;;;;;24.67;23.00;;;3.60;99.90;;;;;;5119821;27;20457;-76
2020/12/31 05:51:23;;;;;;;24.70;22.90;;;3.60;99.90;;;;;;5125813;27;20460;-76
2020/12/31 05:53:50;;;;;;;27.83;25.20;;;3.60;99.90;;;;;;5119551;27;20502;-76
2020/12/31 05:56:18;;;;;;;34.50;30.90;;;3.60;99.90;;;;;;5123232;27;20512;-76
2020/12/31 05:58:46;;;;;;;25.23;23.40;;;3.60;99.90;;;;;;5123018;27;20456;-76
2020/12/31 06:01:15;;;;;;;25.60;23.80;;;3.50;99.90;;;;;;5123978;27;20610;-76
2020/12/31 06:03:52;;;;;;;25.10;23.30;;;3.50;99.90;;;;;;5122299;27;21001;-76
2020/12/31 06:06:23;;;;;;;25.00;23.10;;;3.60;99.90;;;;;;5126159;27;20463;-76
2020/12/31 06:08:58;;;;;;;24.50;22.80;;;3.50;99.90;;;;;;5130421;27;20528;-76
2020/12/31 06:11:33;;;;;;;26.57;24.33;;;3.50;99.90;;;;;;5126829;27;20452;-76
2020/12/31 06:14:03;;;;;;;27.40;25.20;;;3.50;99.90;;;;;;5126052;27;20467;-76
2020/12/31 06:16:38;;;;;;;24.57;22.73;;;3.50;99.90;;;;;;5125287;27;20508;-77
2020/12/31 06:19:32;;;;;;;24.57;22.77;;;3.50;99.90;;;;;;5122512;27;20457;-77
2020/12/31 06:22:01;;;;;;;23.20;21.47;;;3.50;99.90;;;;;;5122196;27;20512;-76
2020/12/31 06:24:37;;;;;;;24.03;22.43;;;3.50;99.90;;;;;;5120126;27;20570;-76
2020/12/31 06:27:09;;;;;;;22.97;21.47;;;3.40;99.90;;;;;;5117982;27;20499;-74
2020/12/31 06:29:48;;;;;;;23.10;21.30;;;3.40;99.90;;;;;;5123397;27;20456;-76
2020/12/31 06:32:26;;;;;;;25.77;23.90;;;3.40;99.90;;;;;;5128675;27;20457;-76
2020/12/31 06:35:01;;;;;;;22.80;21.20;;;3.40;99.90;;;;;;5123695;27;20484;-76
2020/12/31 06:37:29;;;;;;;22.83;21.13;;;3.40;99.90;;;;;;5118843;27;20460;-76
2020/12/31 06:40:23;;;;;;;21.73;20.17;;;3.40;99.90;;;;;;5121256;27;20492;-76
2020/12/31 06:43:04;;;;;;;23.40;21.33;;;3.40;99.90;;;;;;5126355;27;20510;-75
2020/12/31 06:45:43;;;;;;;22.83;21.10;;;3.40;99.90;;;;;;5121967;27;20624;-75
2020/12/31 06:48:34;;;;;;;25.37;22.07;;;3.40;99.90;;;;;;5118351;27;20483;-75
2020/12/31 06:51:03;;;;;;;23.37;21.67;;;3.50;99.90;;;;;;5123469;27;20452;-75
2020/12/31 06:53:31;;;;;;;22.20;20.80;;;3.60;99.90;;;;;;5124243;27;20543;-75
2020/12/31 06:56:02;;;;;;;23.67;22.07;;;3.60;99.90;;;;;;5125093;27;21016;-75
2020/12/31 06:58:30;;;;;;;23.00;21.30;;;3.60;99.90;;;;;;5121755;27;20455;-74
2020/12/31 07:00:57;;;;;;;24.90;23.20;;;3.60;99.90;;;;;;5122959;27;20468;-74
2020/12/31 07:03:45;;;;;;;24.57;22.57;;;3.70;99.90;;;;;;5124698;27;20867;-74
2020/12/31 07:06:31;;;;;;;24.03;22.33;;;3.70;99.90;;;;;;5117973;27;20489;-74
2020/12/31 07:08:59;;;;;;;23.30;21.80;;;3.70;99.90;;;;;;5123371;27;20828;-74
2020/12/31 07:11:38;;;;;;;23.63;22.00;;;3.70;99.90;;;;;;5117144;27;20449;-75
2020/12/31 07:14:22;;;;;;;22.70;21.10;;;3.60;99.90;;;;;;5122694;27;20819;-75
2020/12/31 07:16:58;;;;;;;22.30;20.80;;;3.60;99.90;;;;;;5126970;27;20452;-75
2020/12/31 07:19:36;;;;;;;22.03;20.53;;;3.70;99.90;;;;;;5116689;27;20465;-75
2020/12/31 07:22:08;;;;;;;23.37;21.87;;;3.60;99.90;;;;;;5124082;27;20448;-75
2020/12/31 07:24:35;;;;;;;23.30;21.63;;;3.60;99.90;;;;;;5124709;27;20570;-75
2020/12/31 07:27:02;;;;;;;22.47;20.97;;;3.60;99.90;;;;;;5125375;27;20502;-74
2020/12/31 07:29:33;;;;;;;22.43;20.90;;;3.60;99.90;;;;;;5122288;27;20456;-75
2020/12/31 07:32:01;;;;;;;22.10;20.60;;;3.50;99.90;;;;;;5117894;27;20469;-75
2020/12/31 07:34:29;;;;;;;22.53;21.03;;;3.60;99.90;;;;;;5121361;27;20455;-75
2020/12/31 07:37:01;;;;;;;22.70;21.00;;;3.60;99.90;;;;;;5121030;27;20458;-75
2020/12/31 07:39:28;;;;;;;21.60;20.20;;;3.60;99.90;;;;;;5123773;27;20562;-75
2020/12/31 07:42:13;;;;;;;21.50;19.80;;;3.60;99.90;;;;;;5126951;27;20855;-76
2020/12/31 07:44:50;;;;;;;22.50;20.90;;;3.60;99.90;;;;;;5121922;27;21678;-76
2020/12/31 07:47:19;;;;;;;21.93;20.47;;;3.50;99.90;;;;;;5125060;27;20460;-76
2020/12/31 07:49:46;;;;;;;21.83;20.43;;;3.50;99.90;;;;;;5119721;27;20467;-76
2020/12/31 07:52:13;;;;;;;22.80;21.10;;;3.40;99.90;;;;;;5124874;27;20867;-76
2020/12/31 07:54:42;;;;;;;22.73;21.20;;;3.40;99.90;;;;;;5122239;27;20464;-76
2020/12/31 07:57:11;;;;;;;23.10;21.30;;;3.40;99.90;;;;;;5121408;27;20478;-75
2020/12/31 07:59:45;;;;;;;23.17;21.57;;;3.40;99.90;;;;;;5113958;27;20464;-76
2020/12/31 08:02:14;;;;;;;21.80;20.20;;;3.40;99.90;;;;;;5117505;27;20461;-76
2020/12/31 08:04:41;;;;;;;23.50;21.67;;;3.30;99.90;;;;;;5122484;28;20515;-76
2020/12/31 08:07:15;;;;;;;21.90;20.40;;;3.30;99.90;;;;;;5120053;28;20488;-75
2020/12/31 08:09:43;;;;;;;21.73;20.23;;;3.30;99.90;;;;;;5120203;28;20472;-76
2020/12/31 08:12:11;;;;;;;22.30;20.80;;;3.30;99.90;;;;;;5119218;28;21271;-76
2020/12/31 08:14:44;;;;;;;21.70;20.20;;;3.30;99.90;;;;;;5119319;27;20468;-75
2020/12/31 08:17:11;;;;;;;20.77;19.33;;;3.30;99.90;;;;;;5121089;27;20460;-76
2020/12/31 08:19:38;;;;;;;21.73;20.17;;;3.30;99.90;;;;;;5125430;28;20452;-75
2020/12/31 08:22:14;;;;;;;21.73;20.07;;;3.30;99.90;;;;;;5122688;28;20459;-76
2020/12/31 08:24:48;;;;;;;22.67;21.17;;;3.30;99.90;;;;;;5121149;28;20483;-75
2020/12/31 08:27:20;;;;;;;22.20;20.70;;;3.30;99.90;;;;;;5118087;28;20462;-75
2020/12/31 08:29:48;;;;;;;21.57;20.10;;;3.30;99.90;;;;;;5120129;28;20472;-75
2020/12/31 08:32:27;;;;;;;22.70;21.00;;;3.20;99.90;;;;;;5118513;27;20487;-76
2020/12/31 08:34:55;;;;;;;23.50;21.43;;;3.30;99.90;;;;;;5121541;27;20466;-75
2020/12/31 08:37:23;;;;;;;24.27;22.57;;;3.30;99.90;;;;;;5121112;27;20468;-75
2020/12/31 08:39:53;;;;;;;22.17;20.50;;;3.30;99.90;;;;;;5119831;27;20495;-75
2020/12/31 08:42:23;;;;;;;23.37;21.60;;;3.30;99.90;;;;;;5120595;27;20459;-75
2020/12/31 08:44:53;;;;;;;24.00;22.00;;;3.30;99.90;;;;;;5121145;27;20529;-75
2020/12/31 08:47:20;;;;;;;25.30;23.17;;;3.30;99.90;;;;;;5124136;27;20453;-75
2020/12/31 08:49:51;;;;;;;25.40;23.20;;;3.30;99.90;;;;;;5123825;27;20467;-75
2020/12/31 08:52:18;;;;;;;24.57;22.50;;;3.40;99.90;;;;;;5117682;27;20460;-75
2020/12/31 08:54:44;;;;;;;25.47;23.20;;;3.30;99.90;;;;;;5121427;27;20456;-75
2020/12/31 08:57:15;;;;;;;24.90;22.80;;;3.40;99.90;;;;;;5120050;27;20465;-74
2020/12/31 08:59:43;;;;;;;24.23;22.37;;;3.40;99.90;;;;;;5115220;27;20487;-75
2020/12/31 09:02:13;;;;;;;25.43;23.23;;;3.40;99.90;;;;;;5128059;27;20537;-75
2020/12/31 09:04:39;;;;;;;25.33;23.20;;;3.40;99.90;;;;;;5128123;27;20518;-75
2020/12/31 09:07:12;;;;;;;27.60;24.70;;;3.50;99.90;;;;;;5121225;27;20538;-75
2020/12/31 09:09:39;;;;;;;25.13;23.10;;;3.40;99.90;;;;;;5126155;27;20810;-75
2020/12/31 09:12:08;;;;;;;26.40;24.20;;;3.50;99.90;;;;;;5124316;27;20464;-75
2020/12/31 09:14:36;;;;;;;26.80;24.40;;;3.60;99.90;;;;;;5124898;27;20444;-74
2020/12/31 09:17:22;;;;;;;26.43;24.17;;;3.60;99.90;;;;;;5123152;27;20468;-74
2020/12/31 09:19:51;;;;;;;26.93;24.43;;;3.60;99.90;;;;;;5116970;27;20469;-75
2020/12/31 09:22:18;;;;;;;27.23;24.83;;;3.60;99.90;;;;;;5126387;27;20457;-74
2020/12/31 09:24:45;;;;;;;28.40;25.47;;;3.60;99.90;;;;;;5125588;27;20505;-75
2020/12/31 09:27:12;;;;;;;29.90;26.70;;;3.60;99.90;;;;;;5120675;27;20461;-73
2020/12/31 09:29:40;;;;;;;29.67;25.20;;;3.50;99.90;;;;;;5122630;27;20467;-73
2020/12/31 09:32:09;;;;;;;29.87;27.20;;;3.60;99.90;;;;;;5122073;27;21072;-75
2020/12/31 09:34:37;;;;;;;28.80;25.63;;;3.60;99.90;;;;;;5119392;27;20989;-74
2020/12/31 09:37:04;;;;;;;28.10;25.50;;;3.60;99.90;;;;;;5119964;27;21001;-74
2020/12/31 09:39:32;;;;;;;28.23;25.83;;;3.70;99.90;;;;;;5121996;27;20472;-75
2020/12/31 09:41:58;;;;;;;28.63;25.80;;;3.80;99.90;;;;;;5127255;27;20487;-74
2020/12/31 09:44:24;;;;;;;28.37;25.63;;;3.80;99.90;;;;;;5118262;27;20485;-74
2020/12/31 09:46:50;;;;;;;29.00;26.40;;;3.80;99.90;;;;;;5120930;27;20456;-73
2020/12/31 09:49:19;;;;;;;28.03;25.17;;;3.80;99.90;;;;;;5120688;27;20488;-74
2020/12/31 09:51:47;;;;;;;27.70;25.30;;;3.90;99.90;;;;;;5125944;27;21011;-74
2020/12/31 09:54:13;;;;;;;28.97;26.37;;;3.90;99.90;;;;;;5119791;27;20942;-74
2020/12/31 09:56:40;;;;;;;28.90;26.30;;;3.90;99.90;;;;;;5122247;27;20456;-74
2020/12/31 09:59:07;;;;;;;28.70;26.30;;;3.90;99.90;;;;;;5121969;27;20456;-75
2020/12/31 10:01:34;;;;;;;30.00;26.63;;;4.00;99.90;;;;;;5119012;27;20461;-75
2020/12/31 10:04:01;;;;;;;29.77;27.10;;;3.90;99.90;;;;;;5116049;27;20528;-74
2020/12/31 10:06:28;;;;;;;28.50;26.07;;;4.00;99.90;;;;;;5124031;27;20461;-75
2020/12/31 10:08:55;;;;;;;30.10;27.47;;;4.00;99.90;;;;;;5126533;27;20447;-74
2020/12/31 10:11:21;;;;;;;29.10;26.50;;;4.10;99.90;;;;;;5121840;27;20467;-74
2020/12/31 10:13:48;;;;;;;30.43;27.33;;;4.10;99.90;;;;;;5123332;27;20550;-74
2020/12/31 10:16:15;;;;;;;29.27;26.50;;;4.20;99.90;;;;;;5122023;27;20510;-74
2020/12/31 10:18:41;;;;;;;29.47;26.77;;;4.30;99.90;;;;;;5125966;27;20798;-75
2020/12/31 10:21:07;;;;;;;29.13;26.50;;;4.30;99.90;;;;;;5121987;27;20468;-74
2020/12/31 10:23:34;;;;;;;31.00;28.10;;;4.30;99.90;;;;;;5122019;27;20480;-75
2020/12/31 10:26:01;;;;;;;28.90;26.50;;;4.40;99.90;;;;;;5122801;27;20453;-74
2020/12/31 10:28:27;;;;;;;30.70;27.87;;;4.40;99.90;;;;;;5120583;27;20478;-75
2020/12/31 10:30:53;;;;;;;29.07;26.37;;;4.50;99.90;;;;;;5124878;27;20444;-75
2020/12/31 10:33:19;;;;;;;29.80;27.20;;;4.60;99.90;;;;;;5121145;27;20457;-75
2020/12/31 10:35:46;;;;;;;29.37;26.60;;;4.60;99.90;;;;;;5118613;27;20464;-74
2020/12/31 10:38:13;;;;;;;28.17;26.07;;;4.60;99.90;;;;;;5117977;27;20552;-74
2020/12/31 10:40:43;;;;;;;27.43;25.13;;;4.60;99.90;;;;;;5118237;27;20487;-74
2020/12/31 10:43:11;;;;;;;27.00;25.00;;;4.60;99.90;;;;;;5119113;27;20489;-75
2020/12/31 10:45:38;;;;;;;25.70;23.80;;;4.50;99.90;;;;;;5119626;27;20484;-76
2020/12/31 10:48:07;;;;;;;25.80;23.57;;;4.50;99.90;;;;;;5121758;27;20456;-75
2020/12/31 10:50:35;;;;;;;25.93;24.03;;;4.50;99.90;;;;;;5121685;27;20501;-75
2020/12/31 10:53:01;;;;;;;25.33;23.47;;;4.40;99.90;;;;;;5122033;27;20465;-75
2020/12/31 10:55:29;;;;;;;24.87;23.00;;;4.40;99.90;;;;;;5121602;27;20456;-75
2020/12/31 10:57:56;;;;;;;25.40;23.60;;;4.50;99.90;;;;;;5118388;27;20508;-76
2020/12/31 11:00:23;;;;;;;26.10;24.00;;;4.50;99.90;;;;;;5127198;27;20452;-75
2020/12/31 11:02:50;;;;;;;23.70;22.00;;;4.40;99.90;;;;;;5119175;27;20453;-74
2020/12/31 11:05:17;;;;;;;25.17;23.27;;;4.50;99.90;;;;;;5116701;27;20484;-76
2020/12/31 11:07:43;;;;;;;26.57;24.27;;;4.50;99.90;;;;;;5121158;27;20454;-75
2020/12/31 11:10:09;;;;;;;24.13;22.43;;;4.50;99.90;;;;;;5118418;27;20460;-75
2020/12/31 11:12:35;;;;;;;23.97;22.43;;;4.50;99.90;;;;;;5123945;27;20449;-75
2020/12/31 11:15:02;;;;;;;26.93;24.47;;;4.50;99.90;;;;;;5117581;27;20460;-75
2020/12/31 11:17:29;;;;;;;27.63;25.23;;;4.50;99.90;;;;;;5117903;27;20476;-76
2020/12/31 11:19:56;;;;;;;24.83;23.03;;;4.50;99.90;;;;;;5114867;27;20458;-76
2020/12/31 11:22:22;;;;;;;26.83;24.67;;;4.60;99.90;;;;;;5119463;27;20461;-74
2020/12/31 11:24:49;;;;;;;26.57;23.77;;;4.60;99.90;;;;;;5122896;27;20501;-74
2020/12/31 11:27:15;;;;;;;26.43;23.83;;;4.70;99.90;;;;;;5120135;27;20457;-75
2020/12/31 11:29:41;;;;;;;25.63;23.40;;;4.80;99.90;;;;;;5118510;27;20460;-75
2020/12/31 11:32:07;;;;;;;28.77;25.80;;;4.70;99.90;;;;;;5121852;27;20465;-75
2020/12/31 11:34:35;;;;;;;24.30;22.33;;;4.60;99.90;;;;;;5119814;27;20460;-76
2020/12/31 11:37:02;;;;;;;28.30;25.77;;;4.60;99.90;;;;;;5121217;27;20474;-74
2020/12/31 11:39:28;;;;;;;23.77;22.17;;;4.70;99.90;;;;;;5122725;27;20476;-76
2020/12/31 11:41:59;;;;;;;23.07;21.47;;;4.80;99.90;;;;;;5122552;27;20857;-75
2020/12/31 11:44:26;;;;;;;22.33;20.83;;;4.80;99.90;;;;;;5119420;27;20480;-74
2020/12/31 11:46:57;;;;;;;23.30;21.70;;;4.80;99.90;;;;;;5116639;27;20464;-75
2020/12/31 11:49:24;;;;;;;24.33;22.73;;;4.80;99.90;;;;;;5119832;27;20488;-75
2020/12/31 11:51:55;;;;;;;23.70;22.00;;;4.70;99.90;;;;;;5120308;27;20471;-74
2020/12/31 11:54:21;;;;;;;25.03;23.23;;;4.70;99.90;;;;;;5121531;27;20512;-76
2020/12/31 11:56:48;;;;;;;25.07;23.27;;;4.70;99.90;;;;;;5121037;27;20481;-76
2020/12/31 11:59:14;;;;;;;24.30;22.50;;;4.70;99.90;;;;;;5123809;27;20460;-76
2020/12/31 12:01:41;;;;;;;25.10;23.30;;;4.80;99.90;;;;;;5123229;27;20458;-75
2020/12/31 12:04:07;;;;;;;25.73;23.53;;;4.80;99.90;;;;;;5121143;27;20482;-75
2020/12/31 12:06:33;;;;;;;25.10;22.87;;;4.60;99.90;;;;;;5122691;28;20464;-75
2020/12/31 12:09:01;;;;;;;23.57;21.87;;;4.60;99.90;;;;;;5117882;28;20467;-76
2020/12/31 12:11:30;;;;;;;24.83;23.00;;;4.70;99.90;;;;;;5116378;28;20452;-75
2020/12/31 12:13:57;;;;;;;24.83;23.13;;;4.80;99.90;;;;;;5118945;28;20456;-74
2020/12/31 12:16:23;;;;;;;25.40;23.53;;;4.70;99.90;;;;;;5123511;27;20461;-75
2020/12/31 12:18:50;;;;;;;24.67;22.57;;;4.70;99.90;;;;;;5117863;28;20457;-75
2020/12/31 12:21:19;;;;;;;25.10;23.20;;;4.50;99.90;;;;;;5119172;28;20469;-75
2020/12/31 12:23:46;;;;;;;22.70;21.20;;;4.60;99.90;;;;;;5119780;28;20975;-74
2020/12/31 12:26:13;;;;;;;24.33;22.63;;;4.70;99.90;;;;;;5112355;28;20532;-74
2020/12/31 12:28:40;;;;;;;24.70;22.83;;;4.60;99.90;;;;;;5114657;28;20453;-75
2020/12/31 12:31:06;;;;;;;24.77;23.00;;;4.60;99.90;;;;;;5118455;27;20472;-74
2020/12/31 12:33:32;;;;;;;24.87;22.87;;;4.60;99.90;;;;;;5117235;28;20882;-74
2020/12/31 12:35:58;;;;;;;24.43;22.73;;;4.60;99.90;;;;;;5119861;28;20468;-75
2020/12/31 12:38:25;;;;;;;24.93;23.03;;;4.60;99.90;;;;;;5113994;28;20485;-74
2020/12/31 12:40:55;;;;;;;24.40;22.60;;;4.60;99.90;;;;;;5118694;28;21085;-73
2020/12/31 12:43:23;;;;;;;24.13;22.23;;;4.50;99.90;;;;;;5117063;28;20990;-74